createdAt,value
2022-08-28T00:00:28.777Z,15.88
2022-08-28T00:02:55.816Z,14.25
2022-08-28T00:05:25.504Z,14.98
2022-08-28T00:07:52.358Z,14.55
2022-08-28T00:10:22.345Z,14.27
2022-08-28T00:12:51.247Z,18.65
2022-08-28T00:15:23.688Z,15.27
2022-08-28T00:17:50.819Z,17.83
2022-08-28T00:20:20.584Z,14.23
2022-08-28T00:22:48.487Z,15.18
2022-08-28T00:25:16.689Z,16.80
2022-08-28T00:27:52.504Z,15.82
2022-08-28T00:30:22.848Z,16.83
2022-08-28T00:32:49.950Z,15.00
2022-08-28T00:35:17.736Z,14.32
2022-08-28T00:37:46.384Z,15.23
2022-08-28T00:40:18.498Z,15.20
2022-08-28T00:42:56.193Z,17.92
2022-08-28T00:45:25.235Z,18.27
2022-08-28T00:47:52.323Z,18.88
2022-08-28T00:50:24.345Z,15.95
2022-08-28T00:52:56.934Z,16.85
2022-08-28T00:55:27.273Z,16.02
2022-08-28T00:57:58.963Z,16.92
2022-08-28T01:00:33.699Z,16.60
2022-08-28T01:03:01.157Z,15.38
2022-08-28T01:05:28.959Z,16.50
2022-08-28T01:07:58.706Z,14.88
2022-08-28T01:10:28.865Z,14.55
2022-08-28T01:12:57.878Z,15.38
2022-08-28T01:15:28.324Z,15.02
2022-08-28T01:18:03.529Z,14.23
2022-08-28T01:20:35.682Z,15.00
2022-08-28T01:23:06.903Z,16.05
2022-08-28T01:25:36.525Z,14.93
2022-08-28T01:28:06.582Z,15.40
2022-08-28T01:30:33.679Z,15.40
2022-08-28T01:33:00.808Z,15.55
2022-08-28T01:35:33.532Z,15.27
2022-08-28T01:38:00.570Z,17.63
2022-08-28T01:44:34.196Z,15.77
2022-08-28T01:47:00.885Z,14.80
2022-08-28T01:49:29.349Z,15.00
2022-08-28T01:51:57.215Z,15.32
2022-08-28T01:54:25.329Z,17.70
2022-08-28T01:56:52.518Z,14.77
2022-08-28T01:59:19.282Z,13.68
2022-08-28T02:01:46.064Z,13.80
2022-08-28T02:04:13.340Z,14.90
2022-08-28T02:06:41.195Z,14.00
2022-08-28T02:09:11.593Z,15.45
2022-08-28T02:11:46.320Z,14.73
2022-08-28T02:14:13.851Z,19.08
2022-08-28T02:16:40.563Z,18.45
2022-08-28T02:19:07.295Z,17.27
2022-08-28T02:21:35.435Z,18.60
2022-08-28T02:24:02.241Z,15.88
2022-08-28T02:26:30.278Z,17.02
2022-08-28T02:28:58.616Z,16.60
2022-08-28T02:31:26.185Z,17.17
2022-08-28T02:33:53.336Z,16.77
2022-08-28T02:36:22.945Z,18.63
2022-08-28T02:38:55.346Z,17.92
2022-08-28T02:41:24.756Z,15.88
2022-08-28T02:43:52.265Z,15.85
2022-08-28T02:46:18.992Z,15.88
2022-08-28T02:48:45.776Z,14.63
2022-08-28T02:51:13.968Z,15.48
2022-08-28T02:53:41.797Z,15.45
2022-08-28T02:56:09.768Z,15.75
2022-08-28T02:58:36.626Z,16.33
2022-08-28T03:01:06.942Z,13.52
2022-08-28T03:03:33.983Z,19.27
2022-08-28T03:06:03.215Z,18.88
2022-08-28T03:08:31.973Z,16.33
2022-08-28T03:10:59.761Z,16.02
2022-08-28T03:13:27.483Z,20.10
2022-08-28T03:15:55.860Z,16.63
2022-08-28T03:18:24.370Z,19.45
2022-08-28T03:20:52.621Z,17.13
2022-08-28T03:23:28.634Z,17.20
2022-08-28T03:26:10.965Z,18.33
2022-08-28T03:28:45.898Z,18.33
2022-08-28T03:31:19.559Z,18.02
2022-08-28T03:33:47.568Z,25.73
2022-08-28T03:36:17.251Z,26.80
2022-08-28T03:38:44.035Z,26.13
2022-08-28T03:41:13.055Z,22.52
2022-08-28T03:43:40.353Z,22.63
2022-08-28T03:46:08.093Z,20.42
2022-08-28T03:48:37.167Z,22.98
2022-08-28T03:51:13.469Z,22.17
2022-08-28T03:53:40.684Z,20.75
2022-08-28T03:56:13.374Z,21.50
2022-08-28T03:58:41.610Z,19.30
2022-08-28T04:01:08.838Z,19.70
2022-08-28T04:03:36.817Z,22.67
2022-08-28T04:06:04.296Z,23.02
2022-08-28T04:08:31.100Z,19.73
2022-08-28T04:10:59.530Z,22.45
2022-08-28T04:13:26.944Z,24.55
2022-08-28T04:16:10.591Z,23.15
2022-08-28T04:18:40.079Z,23.10
2022-08-28T04:21:12.978Z,22.35
2022-08-28T04:23:43.230Z,27.30
2022-08-28T04:26:12.515Z,24.45
2022-08-28T04:28:39.270Z,26.27
2022-08-28T04:31:07.640Z,23.40
2022-08-28T04:33:35.808Z,28.65
2022-08-28T04:36:09.189Z,21.40
2022-08-28T04:38:40.428Z,23.58
2022-08-28T04:41:12.837Z,22.05
2022-08-28T04:43:39.718Z,22.30
2022-08-28T04:46:09.405Z,23.27
2022-08-28T04:48:36.922Z,21.98
2022-08-28T04:51:07.129Z,24.98
2022-08-28T04:53:34.287Z,23.08
2022-08-28T04:56:04.951Z,24.13
2022-08-28T04:58:33.445Z,27.15
2022-08-28T05:01:11.281Z,22.48
2022-08-28T05:03:38.291Z,25.17
2022-08-28T05:06:05.358Z,23.20
2022-08-28T05:08:32.301Z,28.70
2022-08-28T05:11:33.359Z,24.10
2022-08-28T05:14:04.380Z,24.67
2022-08-28T05:16:32.031Z,22.70
2022-08-28T05:19:03.081Z,23.02
2022-08-28T05:21:29.842Z,22.42
2022-08-28T05:23:58.034Z,21.95
2022-08-28T05:26:26.797Z,21.02
2022-08-28T05:28:55.521Z,23.17
2022-08-28T05:31:23.346Z,22.42
2022-08-28T05:33:51.797Z,21.38
2022-08-28T05:36:20.078Z,20.70
2022-08-28T05:38:46.928Z,25.45
2022-08-28T05:41:20.618Z,23.25
2022-08-28T05:43:48.057Z,20.85
2022-08-28T05:46:16.156Z,20.42
2022-08-28T05:48:44.155Z,21.92
2022-08-28T05:51:14.522Z,20.20
2022-08-28T05:53:43.257Z,21.27
2022-08-28T05:56:16.935Z,21.65
2022-08-28T05:58:43.668Z,21.20
2022-08-28T06:01:15.319Z,19.73
2022-08-28T06:03:44.959Z,20.63
2022-08-28T06:06:12.490Z,19.40
2022-08-28T06:08:56.339Z,23.25
2022-08-28T06:11:26.890Z,17.55
2022-08-28T06:13:53.749Z,18.55
2022-08-28T06:16:20.801Z,22.42
2022-08-28T06:18:47.973Z,19.85
2022-08-28T06:21:14.763Z,17.90
2022-08-28T06:23:41.460Z,20.52
2022-08-28T06:26:08.257Z,20.30
2022-08-28T06:28:35.041Z,20.17
2022-08-28T06:31:23.177Z,20.75
2022-08-28T06:33:50.835Z,20.33
2022-08-28T06:36:17.552Z,18.25
2022-08-28T06:38:46.636Z,18.13
2022-08-28T06:41:15.419Z,17.75
2022-08-28T06:43:42.502Z,19.08
2022-08-28T06:46:09.334Z,18.88
2022-08-28T06:48:36.328Z,17.65
2022-08-28T06:51:06.990Z,17.85
2022-08-28T06:53:33.945Z,20.67
2022-08-28T06:56:07.169Z,20.08
2022-08-28T06:58:36.948Z,20.83
2022-08-28T07:01:14.369Z,21.80
2022-08-28T07:03:42.677Z,19.45
2022-08-28T07:06:13.302Z,21.45
2022-08-28T07:08:41.604Z,19.88
2022-08-28T07:11:14.293Z,20.83
2022-08-28T07:13:42.247Z,20.40
2022-08-28T07:16:09.745Z,18.88
2022-08-28T07:18:37.081Z,18.50
2022-08-28T07:21:03.900Z,19.88
2022-08-28T07:23:32.699Z,19.40
2022-08-28T07:26:00.343Z,23.90
2022-08-28T07:28:27.088Z,18.35
2022-08-28T07:30:59.149Z,19.25
2022-08-28T07:33:27.659Z,19.27
2022-08-28T07:35:55.439Z,19.05
2022-08-28T07:38:22.343Z,18.88
2022-08-28T07:40:49.056Z,17.52
2022-08-28T07:43:34.347Z,17.50
2022-08-28T07:46:07.056Z,16.98
2022-08-28T07:48:35.415Z,18.42
2022-08-28T07:51:04.293Z,19.15
2022-08-28T07:53:35.756Z,19.98
2022-08-28T07:56:04.362Z,19.60
2022-08-28T07:58:31.291Z,20.00
2022-08-28T08:00:58.487Z,17.45
2022-08-28T08:03:25.747Z,19.48
2022-08-28T08:06:02.165Z,19.13
2022-08-28T08:08:30.436Z,15.80
2022-08-28T08:11:06.706Z,18.25
2022-08-28T08:13:39.583Z,18.65
2022-08-28T08:16:21.239Z,16.60
2022-08-28T08:18:48.701Z,17.02
2022-08-28T08:21:17.247Z,14.98
2022-08-28T08:23:44.111Z,14.30
2022-08-28T08:26:14.703Z,15.68
2022-08-28T08:28:42.453Z,14.18
2022-08-28T08:31:16.331Z,14.38
2022-08-28T08:33:46.240Z,12.98
2022-08-28T08:36:16.113Z,12.77
2022-08-28T08:38:43.757Z,13.55
2022-08-28T08:41:20.095Z,14.13
2022-08-28T08:44:03.534Z,14.50
2022-08-28T08:46:43.664Z,12.52
2022-08-28T08:49:22.508Z,13.75
2022-08-28T08:52:00.163Z,15.02
2022-08-28T08:54:27.127Z,12.98
2022-08-28T08:56:56.189Z,13.45
2022-08-28T08:59:30.204Z,13.50
2022-08-28T09:02:10.476Z,13.95
2022-08-28T09:04:49.630Z,13.35
2022-08-28T09:07:16.284Z,12.10
2022-08-28T09:09:50.821Z,12.45
2022-08-28T09:12:23.092Z,13.30
2022-08-28T09:15:20.627Z,12.27
2022-08-28T09:17:54.720Z,13.20
2022-08-28T09:20:33.195Z,14.07
2022-08-28T09:23:00.257Z,13.60
2022-08-28T09:25:51.451Z,13.18
2022-08-28T09:28:21.401Z,11.15
2022-08-28T09:31:08.120Z,12.43
2022-08-28T09:33:42.068Z,12.48
2022-08-28T09:36:27.880Z,11.48
2022-08-28T09:39:07.086Z,10.98
2022-08-28T09:42:18.683Z,11.48
2022-08-28T09:47:46.142Z,11.10
2022-08-28T09:50:42.345Z,11.07
2022-08-28T09:53:09.003Z,12.20
2022-08-28T09:55:50.574Z,11.98
2022-08-28T09:58:18.829Z,11.43
2022-08-28T10:00:55.211Z,10.98
2022-08-28T10:03:35.839Z,10.95
2022-08-28T10:06:15.267Z,11.35
2022-08-28T10:09:09.783Z,9.60
2022-08-28T10:11:55.138Z,13.05
2022-08-28T10:14:38.112Z,12.35
2022-08-28T10:17:21.659Z,11.25
2022-08-28T10:20:16.651Z,10.68
2022-08-28T10:23:17.770Z,10.07
2022-08-28T10:26:08.580Z,9.32
2022-08-28T10:29:02.792Z,11.75
2022-08-28T10:31:32.747Z,11.02
2022-08-28T10:34:17.614Z,10.95
2022-08-28T10:36:50.851Z,10.95
2022-08-28T10:39:20.659Z,10.55
2022-08-28T10:42:00.665Z,10.95
2022-08-28T10:45:09.036Z,9.85
2022-08-28T10:47:39.328Z,11.27
2022-08-28T10:50:17.277Z,11.87
2022-08-28T10:52:53.725Z,11.13
2022-08-28T10:55:26.588Z,11.80
2022-08-28T10:57:58.518Z,11.68
2022-08-28T11:00:27.794Z,9.60
2022-08-28T11:03:02.456Z,10.90
2022-08-28T11:05:53.640Z,9.98
2022-08-28T11:10:56.047Z,8.07
2022-08-28T11:13:48.440Z,7.38
2022-08-28T11:19:00.453Z,8.10
2022-08-28T11:21:41.698Z,7.97
2022-08-28T11:27:00.331Z,7.70
2022-08-28T11:29:57.957Z,7.65
2022-08-28T11:32:55.539Z,7.05
2022-08-28T11:35:39.850Z,6.32
2022-08-28T11:38:06.942Z,6.57
2022-08-28T11:40:33.595Z,8.20
2022-08-28T11:43:16.193Z,5.82
2022-08-28T11:45:45.656Z,6.20
2022-08-28T11:48:28.263Z,6.28
2022-08-28T11:51:06.980Z,5.40
2022-08-28T11:54:03.549Z,4.85
2022-08-28T11:57:11.771Z,4.75
2022-08-28T12:00:10.583Z,5.72
2022-08-28T12:02:40.121Z,5.40
2022-08-28T12:05:11.729Z,6.47
2022-08-28T12:07:44.485Z,6.00
2022-08-28T12:10:34.094Z,6.00
2022-08-28T12:13:04.114Z,6.10
2022-08-28T12:15:31.167Z,5.43
2022-08-28T12:18:00.181Z,5.63
2022-08-28T12:20:41.226Z,5.80
2022-08-28T12:23:38.111Z,6.22
2022-08-28T12:26:07.909Z,5.40
2022-08-28T12:28:45.907Z,6.35
2022-08-28T12:32:08.793Z,5.78
2022-08-28T12:34:57.120Z,5.40
2022-08-28T12:37:51.973Z,5.70
2022-08-28T12:40:34.108Z,5.50
2022-08-28T12:43:07.713Z,5.72
2022-08-28T12:45:48.126Z,5.82
2022-08-28T12:48:17.407Z,5.70
2022-08-28T12:50:44.201Z,4.88
2022-08-28T12:53:17.724Z,6.15
2022-08-28T12:55:45.923Z,5.72
2022-08-28T12:58:26.738Z,5.80
2022-08-28T13:00:58.205Z,4.65
2022-08-28T13:03:25.533Z,4.75
2022-08-28T13:06:05.739Z,5.25
2022-08-28T13:08:34.212Z,5.03
2022-08-28T13:11:01.268Z,5.20
2022-08-28T13:13:46.513Z,5.20
2022-08-28T13:16:34.231Z,4.60
2022-08-28T13:19:04.217Z,4.78
2022-08-28T13:21:47.259Z,4.82
2022-08-28T13:24:27.203Z,5.07
2022-08-28T13:27:07.305Z,4.28
2022-08-28T13:29:35.275Z,5.72
2022-08-28T13:32:09.346Z,4.85
2022-08-28T13:34:38.627Z,5.65
2022-08-28T13:37:43.753Z,5.22
2022-08-28T13:40:30.105Z,4.65
2022-08-28T13:43:02.755Z,5.25
2022-08-28T13:45:32.688Z,4.55
2022-08-28T13:48:13.929Z,5.55
2022-08-28T13:50:46.595Z,5.53
2022-08-28T13:53:15.606Z,5.35
2022-08-28T13:55:42.397Z,4.43
2022-08-28T13:58:09.323Z,4.90
2022-08-28T14:00:40.953Z,5.80
2022-08-28T14:03:26.191Z,5.53
2022-08-28T14:05:53.310Z,5.35
2022-08-28T14:08:20.519Z,5.25
2022-08-28T14:10:47.728Z,4.75
2022-08-28T14:13:15.063Z,4.80
2022-08-28T14:15:41.936Z,4.85
2022-08-28T14:18:08.763Z,5.30
2022-08-28T14:20:37.677Z,5.15
2022-08-28T14:23:04.570Z,5.13
2022-08-28T14:25:33.776Z,4.45
2022-08-28T14:28:04.606Z,4.95
2022-08-28T14:30:31.383Z,3.70
2022-08-28T14:32:58.073Z,4.25
2022-08-28T14:35:24.821Z,4.40
2022-08-28T14:37:51.550Z,4.50
2022-08-28T14:40:18.406Z,4.65
2022-08-28T14:42:45.252Z,4.10
2022-08-28T14:45:12.154Z,4.20
2022-08-28T14:47:39.323Z,3.97
2022-08-28T14:50:06.703Z,4.35
2022-08-28T14:52:33.495Z,3.80
2022-08-28T14:55:00.319Z,4.50
2022-08-28T14:57:27.107Z,4.10
2022-08-28T14:59:53.850Z,4.15
2022-08-28T15:02:20.510Z,3.95
2022-08-28T15:04:47.198Z,3.78
2022-08-28T15:07:15.283Z,4.50
2022-08-28T15:09:43.115Z,4.22
2022-08-28T15:12:10.402Z,3.78
2022-08-28T15:14:37.386Z,3.90
2022-08-28T15:17:04.908Z,4.63
2022-08-28T15:19:31.777Z,5.20
2022-08-28T15:21:59.398Z,4.50
2022-08-28T15:24:30.853Z,4.25
2022-08-28T15:26:59.511Z,4.13
2022-08-28T15:29:30.224Z,3.65
2022-08-28T15:31:57.986Z,3.50
2022-08-28T15:34:28.384Z,4.45
2022-08-28T15:36:56.347Z,4.22
2022-08-28T15:39:47.124Z,4.80
2022-08-28T15:42:14.805Z,4.75
2022-08-28T15:44:42.387Z,4.53
2022-08-28T15:47:09.352Z,4.10
2022-08-28T15:49:41.529Z,4.18
2022-08-28T15:52:18.169Z,4.18
2022-08-28T15:54:44.902Z,4.03
2022-08-28T15:57:11.653Z,4.53
2022-08-28T15:59:48.903Z,3.70
2022-08-28T16:02:21.335Z,4.55
2022-08-28T16:04:48.710Z,4.38
2022-08-28T16:07:15.632Z,4.28
2022-08-28T16:09:42.520Z,4.13
2022-08-28T16:12:09.305Z,4.38
2022-08-28T16:14:36.212Z,3.97
2022-08-28T16:17:05.959Z,4.80
2022-08-28T16:19:39.776Z,3.97
2022-08-28T16:22:07.521Z,4.43
2022-08-28T16:24:34.763Z,4.10
2022-08-28T16:27:01.637Z,4.03
2022-08-28T16:29:28.574Z,4.22
2022-08-28T16:31:56.640Z,3.80
2022-08-28T16:34:26.090Z,4.25
2022-08-28T16:36:54.999Z,4.13
2022-08-28T16:39:21.677Z,3.75
2022-08-28T16:41:50.171Z,3.83
2022-08-28T16:44:21.989Z,3.90
2022-08-28T16:46:49.141Z,3.92
2022-08-28T16:49:15.976Z,4.07
2022-08-28T16:51:42.720Z,4.18
2022-08-28T16:54:09.429Z,4.15
2022-08-28T16:56:36.571Z,3.90
2022-08-28T16:59:04.165Z,4.47
2022-08-28T17:01:38.121Z,4.35
2022-08-28T17:04:09.469Z,4.32
2022-08-28T17:06:36.411Z,4.10
2022-08-28T17:09:03.339Z,3.90
2022-08-28T17:11:30.993Z,4.35
2022-08-28T17:13:58.740Z,4.45
2022-08-28T17:16:28.707Z,4.15
2022-08-28T17:18:55.760Z,4.55
2022-08-28T17:21:41.413Z,4.85
2022-08-28T17:24:12.258Z,3.72
2022-08-28T17:26:40.513Z,4.07
2022-08-28T17:29:07.442Z,4.57
2022-08-28T17:31:34.319Z,4.18
2022-08-28T17:34:01.114Z,4.35
2022-08-28T17:36:33.120Z,4.43
2022-08-28T17:39:05.683Z,4.85
2022-08-28T17:41:33.408Z,4.22
2022-08-28T17:44:01.329Z,4.18
2022-08-28T17:46:28.575Z,4.57
2022-08-28T17:48:56.291Z,3.85
2022-08-28T17:51:40.417Z,3.85
2022-08-28T17:54:13.859Z,4.70
2022-08-28T17:56:41.079Z,4.05
2022-08-28T17:59:07.868Z,4.32
2022-08-28T18:01:34.873Z,4.30
2022-08-28T18:04:01.720Z,4.43
2022-08-28T18:06:28.466Z,4.53
2022-08-28T18:08:55.162Z,4.90
2022-08-28T18:11:21.837Z,4.22
2022-08-28T18:13:48.519Z,4.55
2022-08-28T18:16:15.689Z,4.88
2022-08-28T18:18:42.812Z,4.53
2022-08-28T18:21:10.839Z,4.53
2022-08-28T18:23:39.473Z,4.10
2022-08-28T18:26:08.175Z,4.20
2022-08-28T18:28:34.902Z,4.55
2022-08-28T18:31:02.507Z,4.15
2022-08-28T18:33:29.637Z,4.78
2022-08-28T18:35:56.719Z,4.07
2022-08-28T18:38:27.719Z,4.75
2022-08-28T18:40:55.450Z,4.53
2022-08-28T18:43:23.563Z,4.60
2022-08-28T18:45:50.408Z,4.03
2022-08-28T18:48:18.360Z,5.03
2022-08-28T18:50:47.289Z,4.90
2022-08-28T18:53:15.491Z,4.88
2022-08-28T18:55:42.307Z,5.30
2022-08-28T18:58:10.354Z,4.95
2022-08-28T19:00:42.406Z,4.60
2022-08-28T19:03:09.536Z,6.00
2022-08-28T19:05:37.815Z,5.03
2022-08-28T19:08:04.819Z,4.82
2022-08-28T19:10:34.363Z,5.00
2022-08-28T19:13:02.885Z,4.75
2022-08-28T19:15:31.798Z,4.90
2022-08-28T19:18:00.329Z,4.72
2022-08-28T19:20:28.057Z,5.45
2022-08-28T19:22:56.211Z,5.25
2022-08-28T19:25:28.590Z,4.97
2022-08-28T19:27:58.978Z,4.57
2022-08-28T19:30:28.127Z,3.88
2022-08-28T19:32:55.354Z,4.07
2022-08-28T19:35:24.623Z,4.65
2022-08-28T19:37:52.688Z,4.88
2022-08-28T19:40:20.519Z,5.78
2022-08-28T19:42:49.681Z,4.88
2022-08-28T19:45:17.039Z,4.45
2022-08-28T19:47:44.034Z,4.82
2022-08-28T19:50:12.167Z,5.03
2022-08-28T19:52:39.259Z,4.95
2022-08-28T19:55:07.667Z,4.43
2022-08-28T19:57:34.961Z,4.13
2022-08-28T20:00:02.413Z,4.97
2022-08-28T20:02:31.059Z,4.47
2022-08-28T20:04:57.774Z,4.68
2022-08-28T20:07:24.988Z,4.78
2022-08-28T20:09:52.114Z,5.10
2022-08-28T20:12:19.059Z,4.78
2022-08-28T20:14:45.876Z,5.60
2022-08-28T20:17:12.608Z,4.82
2022-08-28T20:19:39.449Z,5.07
2022-08-28T20:22:06.240Z,4.55
2022-08-28T20:24:33.034Z,4.72
2022-08-28T20:26:59.776Z,5.35
2022-08-28T20:29:26.522Z,4.97
2022-08-28T20:31:54.093Z,5.03
2022-08-28T20:34:21.367Z,4.95
2022-08-28T20:36:48.593Z,5.43
2022-08-28T20:39:15.848Z,5.05
2022-08-28T20:41:44.282Z,5.57
2022-08-28T20:44:12.893Z,5.50
2022-08-28T20:46:41.983Z,5.07
2022-08-28T20:49:14.311Z,5.28
2022-08-28T20:52:15.732Z,5.05
2022-08-28T20:54:42.837Z,4.63
2022-08-28T20:57:11.927Z,5.15
2022-08-28T20:59:41.397Z,4.63
2022-08-28T21:02:19.711Z,5.05
2022-08-28T21:04:48.067Z,5.10
2022-08-28T21:07:19.881Z,4.90
2022-08-28T21:10:05.479Z,4.97
2022-08-28T21:12:33.781Z,4.80
2022-08-28T21:15:00.688Z,5.15
2022-08-28T21:17:29.448Z,5.75
2022-08-28T21:20:11.175Z,5.88
2022-08-28T21:22:38.279Z,5.25
2022-08-28T21:25:07.848Z,5.20
2022-08-28T21:27:35.370Z,4.93
2022-08-28T21:30:02.649Z,5.63
2022-08-28T21:32:30.921Z,4.43
2022-08-28T21:34:58.489Z,4.50
2022-08-28T21:37:25.228Z,5.30
2022-08-28T21:39:52.298Z,5.60
2022-08-28T21:42:20.762Z,5.63
2022-08-28T21:44:51.795Z,5.28
2022-08-28T21:47:21.258Z,5.47
2022-08-28T21:49:49.453Z,6.15
2022-08-28T21:52:18.497Z,5.13
2022-08-28T21:54:45.588Z,5.47
2022-08-28T21:57:12.317Z,5.55
2022-08-28T21:59:39.041Z,5.20
2022-08-28T22:02:06.066Z,5.82
2022-08-28T22:04:34.695Z,5.63
2022-08-28T22:07:01.780Z,5.65
2022-08-28T22:09:29.009Z,4.93
2022-08-28T22:11:55.705Z,6.00
2022-08-28T22:14:25.000Z,5.88
2022-08-28T22:16:51.973Z,5.10
2022-08-28T22:19:18.988Z,6.43
2022-08-28T22:22:04.538Z,6.40
2022-08-28T22:24:31.299Z,5.30
2022-08-28T22:26:58.025Z,6.00
2022-08-28T22:29:25.773Z,6.63
2022-08-28T22:31:52.838Z,5.70
2022-08-28T22:34:19.672Z,6.75
2022-08-28T22:36:46.409Z,5.70
2022-08-28T22:39:13.088Z,5.65
2022-08-28T22:41:40.325Z,5.38
2022-08-28T22:44:07.641Z,6.03
2022-08-28T22:46:34.605Z,6.13
2022-08-28T22:49:01.484Z,6.00
2022-08-28T22:51:28.202Z,6.45
2022-08-28T22:53:56.045Z,6.05
2022-08-28T22:56:22.765Z,6.00
2022-08-28T22:58:49.569Z,7.28
2022-08-28T23:01:20.075Z,5.93
2022-08-28T23:03:47.277Z,6.07
2022-08-28T23:06:14.155Z,6.18
2022-08-28T23:08:41.471Z,6.10
2022-08-28T23:11:08.627Z,6.88
2022-08-28T23:13:35.857Z,6.82
2022-08-28T23:16:03.765Z,7.80
2022-08-28T23:18:41.535Z,6.45
2022-08-28T23:21:19.449Z,6.93
2022-08-28T23:23:46.733Z,6.68
2022-08-28T23:26:15.816Z,5.70
2022-08-28T23:28:42.743Z,6.75
2022-08-28T23:31:10.107Z,6.47
2022-08-28T23:33:36.912Z,7.18
2022-08-28T23:36:04.305Z,8.05
2022-08-28T23:38:31.037Z,6.63
2022-08-28T23:40:58.535Z,6.43
2022-08-28T23:43:25.280Z,6.70
2022-08-28T23:45:52.773Z,6.38
2022-08-28T23:48:20.610Z,6.20
2022-08-28T23:50:47.574Z,7.05
2022-08-28T23:53:14.733Z,6.82
2022-08-28T23:55:43.818Z,6.63
2022-08-28T23:58:10.533Z,7.20
